Time;durP1;ratioP1;P1;durP2;ratioP2;P2;SDS_P1;SDS_P2;PMS_P1;PMS_P2;Temp;Humidity;BMP_temperature;BMP_pressure;BME280_temperature;BME280_humidity;BME280_pressure;Samples;Min_cycle;Max_cycle;Signal;HPM_P1;HPM_P2
2021/09/21 00:00:46;;;;;;;;;26.00;25.75;;;;;19.51;58.74;101927.78;2083609;28;48238;-59
2021/09/21 00:01:47;;;;;;;;;22.00;20.25;;;;;19.51;58.36;101934.03;2083322;28;47092;-59
2021/09/21 00:02:47;;;;;;;;;24.75;23.75;;;;;19.49;58.83;101927.84;2083324;28;46845;-59
2021/09/21 00:03:48;;;;;;;;;24.50;22.00;;;;;19.48;58.79;101926.06;2083918;28;47269;-59
2021/09/21 00:04:49;;;;;;;;;28.80;26.60;;;;;19.47;58.14;101927.03;2084114;28;45452;-60
2021/09/21 00:05:49;;;;;;;;;25.50;22.75;;;;;19.46;58.40;101927.09;2078289;28;45307;-59
2021/09/21 00:06:49;;;;;;;;;27.50;25.00;;;;;19.44;58.22;101927.16;2083522;28;47168;-59
2021/09/21 00:07:50;;;;;;;;;26.25;25.75;;;;;19.41;58.16;101922.75;2082902;28;48289;-59
2021/09/21 00:08:50;;;;;;;;;28.75;25.75;;;;;19.40;58.43;101928.19;2077770;28;47302;-59
2021/09/21 00:09:51;;;;;;;;;28.25;27.50;;;;;19.38;58.73;101925.56;2078604;28;46784;-59
2021/09/21 00:10:51;;;;;;;;;24.00;23.25;;;;;19.37;58.14;101928.31;2080808;28;46890;-59
2021/09/21 00:11:52;;;;;;;;;26.25;25.00;;;;;19.35;58.24;101932.88;2083228;28;46113;-59
2021/09/21 00:12:53;;;;;;;;;23.75;23.25;;;;;19.31;58.03;101929.44;2083567;28;47917;-59
2021/09/21 00:13:53;;;;;;;;;30.00;26.75;;;;;19.29;58.01;101928.59;2079069;28;47451;-59
2021/09/21 00:14:54;;;;;;;;;25.75;24.75;;;;;19.28;58.07;101928.66;2082812;28;48139;-59
2021/09/21 00:15:56;;;;;;;;;26.25;24.25;;;;;19.26;58.25;101933.22;2082468;28;48535;-58
2021/09/21 00:16:58;;;;;;;;;29.00;26.60;;;;;19.24;58.32;101938.69;2083460;28;47548;-59
2021/09/21 00:17:58;;;;;;;;;24.80;23.60;;;;;19.23;58.54;101944.13;2082614;28;47246;-59
2021/09/21 00:18:59;;;;;;;;;32.25;30.50;;;;;19.22;58.13;101947.75;2083288;28;46878;-59
2021/09/21 00:20:00;;;;;;;;;27.00;26.75;;;;;19.21;58.56;101943.31;2077277;28;48173;-59
2021/09/21 00:21:00;;;;;;;;;22.80;21.40;;;;;19.21;58.16;101941.50;2080552;28;45440;-59
2021/09/21 00:22:01;;;;;;;;;25.25;24.25;;;;;19.20;58.45;101938.88;2083479;28;48025;-59
2021/09/21 00:23:02;;;;;;;;;28.25;27.00;;;;;19.20;58.15;101944.25;2083202;28;47295;-59
2021/09/21 00:24:03;;;;;;;;;27.50;23.25;;;;;19.18;57.94;101951.47;2082040;28;47461;-59
2021/09/21 00:25:04;;;;;;;;;27.50;25.00;;;;;19.14;57.82;101953.41;2079826;28;45277;-58
2021/09/21 00:26:04;;;;;;;;;27.80;23.80;;;;;19.13;58.46;101945.41;2083801;28;48218;-60
2021/09/21 00:27:05;;;;;;;;;21.75;20.00;;;;;19.11;58.27;101951.72;2084539;28;47196;-59
2021/09/21 00:28:05;;;;;;;;;30.50;25.50;;;;;19.10;57.94;101946.41;2078526;28;46867;-59
2021/09/21 00:29:07;;;;;;;;;28.00;26.25;;;;;19.10;58.01;101951.78;2078001;28;48105;-59
2021/09/21 00:30:09;;;;;;;;;23.60;23.40;;;;;19.10;58.32;101941.00;2080706;28;48376;-59
2021/09/21 00:31:11;;;;;;;;;24.80;24.20;;;;;19.10;58.24;101952.66;2075081;28;46910;-59
2021/09/21 00:32:18;;;;;;;;;25.80;25.00;;;;;19.10;58.40;101954.47;2083170;28;47247;-58
2021/09/21 00:33:23;;;;;;;;;26.00;25.00;;;;;19.09;58.10;101945.53;2080477;28;45577;-59
2021/09/21 00:34:27;;;;;;;;;23.60;23.00;;;;;19.10;58.10;101946.41;2076418;28;47321;-58
2021/09/21 00:35:29;;;;;;;;;31.00;29.00;;;;;19.12;58.45;101941.84;2081648;28;48884;-59
2021/09/21 00:36:29;;;;;;;;;25.80;25.20;;;;;19.13;58.29;101950.78;2079499;28;47778;-59
2021/09/21 00:37:30;;;;;;;;;27.50;26.25;;;;;19.13;58.40;101945.41;2083226;28;48127;-59
2021/09/21 00:38:30;;;;;;;;;27.25;26.50;;;;;19.15;58.35;101951.59;2083063;28;47407;-58
2021/09/21 00:39:31;;;;;;;;;20.75;20.75;;;;;19.15;58.09;101957.84;2080650;28;47241;-59
2021/09/21 00:40:32;;;;;;;;;29.60;28.40;;;;;19.16;57.61;101953.34;2076128;28;45333;-59
2021/09/21 00:41:41;;;;;;;;;25.50;24.00;;;;;19.15;57.73;101954.28;2081171;28;47246;-58
2021/09/21 00:42:44;;;;;;;;;28.00;26.00;;;;;19.13;57.93;101948.09;2083171;28;47317;-59
2021/09/21 00:43:46;;;;;;;;;28.00;26.60;;;;;19.11;57.70;101942.78;2078884;28;47065;-59
2021/09/21 00:44:54;;;;;;;;;28.80;27.20;;;;;19.09;57.79;101945.53;2079826;28;46940;-59
2021/09/21 00:45:54;;;;;;;;;25.40;24.40;;;;;19.08;57.72;101946.47;2075476;28;47729;-58
2021/09/21 00:46:55;;;;;;;;;31.75;27.75;;;;;19.07;57.40;101942.00;2078369;28;48258;-59
2021/09/21 00:47:56;;;;;;;;;28.50;24.50;;;;;19.06;57.41;101953.72;2082322;28;47426;-59
2021/09/21 00:48:56;;;;;;;;;28.75;27.75;;;;;19.05;57.30;101948.38;2082023;28;47860;-59
2021/09/21 00:49:57;;;;;;;;;26.00;24.00;;;;;19.03;57.66;101951.13;2083517;28;47036;-59
2021/09/21 00:50:58;;;;;;;;;27.40;24.80;;;;;19.02;57.84;101960.13;2077553;28;47219;-58
2021/09/21 00:51:59;;;;;;;;;27.60;25.60;;;;;19.02;57.93;101956.56;2080196;28;47334;-59
2021/09/21 00:53:01;;;;;;;;;26.40;25.60;;;;;19.00;57.62;101955.75;2076518;28;46623;-59
2021/09/21 00:54:02;;;;;;;;;25.40;25.40;;;;;18.99;57.56;101952.19;2081820;28;46367;-59
2021/09/21 00:55:04;;;;;;;;;26.00;26.00;;;;;18.99;57.79;101945.91;2080260;28;47584;-59
2021/09/21 00:56:04;;;;;;;;;30.60;29.60;;;;;19.00;58.01;101944.97;2081856;28;47873;-59
2021/09/21 00:57:05;;;;;;;;;31.25;27.25;;;;;18.99;57.45;101941.41;2082786;28;46074;-59
2021/09/21 00:58:05;;;;;;;;;30.75;27.50;;;;;18.99;57.49;101948.59;2074953;28;47206;-59
2021/09/21 00:59:06;;;;;;;;;33.00;29.00;;;;;18.97;57.47;101953.19;2074826;28;45297;-59
2021/09/21 01:00:09;;;;;;;;;31.50;29.25;;;;;18.94;57.24;101948.78;2083975;28;45373;-59
2021/09/21 01:01:10;;;;;;;;;32.80;30.20;;;;;18.92;57.25;101944.38;2082277;28;48384;-59
2021/09/21 01:02:10;;;;;;;;;29.50;25.25;;;;;18.89;57.35;101940.00;2082986;28;47098;-59
2021/09/21 01:03:11;;;;;;;;;24.00;23.25;;;;;18.87;57.53;101941.88;2082856;28;48351;-59
2021/09/21 01:04:11;;;;;;;;;33.00;30.00;;;;;18.87;57.18;101954.44;2083563;28;47125;-59
2021/09/21 01:05:13;;;;;;;;;28.50;28.50;;;;;18.87;57.64;101947.25;2081943;28;47504;-59
2021/09/21 01:06:13;;;;;;;;;31.60;30.40;;;;;18.86;57.79;101961.63;2077425;28;47304;-59
2021/09/21 01:07:14;;;;;;;;;29.00;27.25;;;;;18.87;57.69;101963.38;2080472;28;47359;-59
2021/09/21 01:08:14;;;;;;;;;31.25;30.25;;;;;18.87;57.65;101962.50;2083342;28;45417;-59
2021/09/21 01:09:19;;;;;;;;;33.75;31.00;;;;;18.87;57.54;101958.00;2082108;28;48407;-66
2021/09/21 01:10:24;;;;;;;;;32.80;30.60;;;;;18.87;57.33;101955.31;2077821;28;47620;-59
2021/09/21 01:11:25;;;;;;;;;34.60;30.40;;;;;18.86;57.42;101960.75;2079807;28;47619;-59
2021/09/21 01:12:26;;;;;;;;;36.50;30.25;;;;;18.84;57.29;101968.00;2082885;28;47755;-59
2021/09/21 01:13:26;;;;;;;;;34.25;31.00;;;;;18.80;57.23;101969.91;2083021;28;45393;-59
2021/09/21 01:14:27;;;;;;;;;30.75;29.00;;;;;18.76;57.45;101969.16;2083424;28;48428;-59
2021/09/21 01:15:27;;;;;;;;;36.75;32.75;;;;;18.75;57.44;101975.47;2082918;28;45449;-59
2021/09/21 01:16:28;;;;;;;;;36.75;33.50;;;;;18.75;57.23;101970.09;2082773;28;47261;-59
2021/09/21 01:17:29;;;;;;;;;43.50;34.25;;;;;18.75;57.09;101967.38;2081072;28;48045;-59
2021/09/21 01:18:30;;;;;;;;;34.75;32.00;;;;;18.74;57.62;101968.31;2079657;28;47142;-58
2021/09/21 01:19:30;;;;;;;;;44.00;36.40;;;;;18.75;57.60;101963.81;2082375;28;46460;-59
2021/09/21 01:20:31;;;;;;;;;34.50;32.25;;;;;18.75;57.37;101961.13;2083514;28;48096;-59
2021/09/21 01:21:31;;;;;;;;;43.25;36.50;;;;;18.75;57.43;101962.00;2080435;28;47097;-59
2021/09/21 01:22:32;;;;;;;;;39.50;35.50;;;;;18.75;57.22;101966.50;2079032;28;47201;-59
2021/09/21 01:23:53;;;;;;;;;36.50;31.75;;;;;18.74;57.43;101965.63;2080679;28;47530;-59
2021/09/21 01:24:54;;;;;;;;;39.40;33.40;;;;;18.73;57.45;101960.31;2079134;28;46033;-58
2021/09/21 01:25:56;;;;;;;;;38.75;33.50;;;;;18.73;57.45;101965.69;2081702;28;48264;-58
2021/09/21 01:26:56;;;;;;;;;37.20;32.40;;;;;18.72;57.33;101970.19;2085625;28;47366;-59
2021/09/21 01:27:57;;;;;;;;;35.50;31.75;;;;;18.72;57.04;101974.69;2086704;28;47267;-59
2021/09/21 01:28:57;;;;;;;;;37.25;32.00;;;;;18.72;57.41;101980.06;2078750;28;47821;-59
2021/09/21 01:29:57;;;;;;;;;40.25;33.25;;;;;18.71;57.28;101976.50;2080839;28;47659;-59
2021/09/21 01:30:58;;;;;;;;;39.75;34.50;;;;;18.71;57.28;101972.94;2073842;28;47789;-59
2021/09/21 01:31:58;;;;;;;;;35.25;31.75;;;;;18.71;57.49;101981.88;2074395;28;47269;-58
2021/09/21 01:33:01;;;;;;;;;32.75;29.75;;;;;18.71;57.51;101978.31;2083348;28;48297;-59
2021/09/21 01:34:02;;;;;;;;;35.20;31.20;;;;;18.71;57.36;101975.63;2083082;28;47245;-59
2021/09/21 01:35:04;;;;;;;;;39.60;33.60;;;;;18.72;57.54;101974.69;2082511;28;47341;-58
2021/09/21 01:36:04;;;;;;;;;33.60;31.00;;;;;18.72;57.33;101972.88;2080218;28;47337;-58
2021/09/21 01:37:06;;;;;;;;;33.25;30.25;;;;;18.71;57.11;101978.31;2078501;28;47102;-59
2021/09/21 01:38:06;;;;;;;;;29.80;29.00;;;;;18.72;57.23;101980.06;2079800;28;47402;-59
2021/09/21 01:39:07;;;;;;;;;28.50;25.75;;;;;18.73;57.29;101981.84;2082330;28;47285;-58
2021/09/21 01:40:08;;;;;;;;;34.00;31.50;;;;;18.72;57.31;101977.38;2082858;28;48093;-58
2021/09/21 01:41:09;;;;;;;;;32.20;30.40;;;;;18.71;57.31;101976.50;2082660;28;47649;-59
2021/09/21 01:42:10;;;;;;;;;31.00;30.00;;;;;18.71;57.54;101976.50;2082701;28;46526;-58
2021/09/21 01:43:10;;;;;;;;;32.25;29.75;;;;;18.73;57.33;101977.34;2080660;28;47271;-58
2021/09/21 01:44:11;;;;;;;;;36.00;30.00;;;;;18.74;57.09;101981.78;2079775;28;48114;-59
2021/09/21 01:45:13;;;;;;;;;34.00;32.25;;;;;18.75;57.13;101994.28;2078675;28;47595;-59
2021/09/21 01:46:17;;;;;;;;;28.40;28.40;;;;;18.76;57.13;101998.72;2079334;28;48014;-59
2021/09/21 01:47:21;;;;;;;;;32.00;29.00;;;;;18.79;57.49;101989.66;2077353;28;48179;-59
2021/09/21 01:48:21;;;;;;;;;34.80;31.20;;;;;18.79;56.86;101986.97;2080760;28;47377;-59
2021/09/21 01:49:23;;;;;;;;;34.00;31.25;;;;;18.79;56.95;101982.47;2083040;28;46453;-59
2021/09/21 01:50:37;;;;;;;;;33.00;30.00;;;;;18.78;56.71;101988.78;2085060;28;46931;-59
2021/09/21 01:51:40;;;;;;;;;31.60;28.80;;;;;18.78;56.76;101987.91;2081617;28;48183;-59
2021/09/21 01:52:55;;;;;;;;;29.60;28.60;;;;;18.76;57.29;101984.41;2083392;28;47396;-59
2021/09/21 01:54:12;;;;;;;;;34.40;32.40;;;;;18.75;56.69;101985.34;2081954;28;47317;-59
2021/09/21 01:55:21;;;;;;;;;28.40;24.80;;;;;18.70;56.93;101984.63;2078478;28;47340;-59
2021/09/21 01:59:00;;;;;;;;;35.20;31.00;;;;;18.66;57.01;101988.34;2077430;28;46481;-59
2021/09/21 02:00:01;;;;;;;;;29.75;26.00;;;;;18.65;56.84;101989.28;2082606;28;47156;-59
2021/09/21 02:01:01;;;;;;;;;35.75;32.00;;;;;18.64;57.17;101984.84;2082975;28;48370;-59
2021/09/21 02:02:02;;;;;;;;;32.00;29.00;;;;;18.64;57.25;101988.41;2072039;28;47760;-59
2021/09/21 02:03:03;;;;;;;;;29.00;28.25;;;;;18.65;57.07;101992.84;2074295;28;47460;-59
2021/09/21 02:04:07;;;;;;;;;33.00;29.00;;;;;18.65;56.89;101990.16;2081935;28;47250;-59
2021/09/21 02:05:08;;;;;;;;;35.00;31.80;;;;;18.67;57.13;101992.78;2076032;28;47257;-59
2021/09/21 02:06:10;;;;;;;;;34.00;29.40;;;;;18.66;56.89;101991.91;2081900;28;45531;-59
2021/09/21 02:07:10;;;;;;;;;31.60;29.80;;;;;18.66;57.13;101991.91;2080209;28;45461;-59
2021/09/21 02:08:11;;;;;;;;;32.50;31.00;;;;;18.67;56.96;101990.09;2082324;28;47112;-59
2021/09/21 02:09:13;;;;;;;;;31.75;29.50;;;;;18.66;56.77;101986.53;2082111;28;45442;-59
2021/09/21 02:10:14;;;;;;;;;30.60;28.80;;;;;18.68;57.06;101991.88;2081281;28;47356;-59
2021/09/21 02:11:15;;;;;;;;;35.75;31.75;;;;;18.68;56.73;101989.19;2081574;28;47544;-59
2021/09/21 02:12:15;;;;;;;;;30.50;30.00;;;;;18.69;56.48;101990.94;2082525;28;47096;-59
2021/09/21 02:13:16;;;;;;;;;34.50;29.50;;;;;18.71;56.65;101998.03;2082945;28;46482;-59
2021/09/21 02:14:18;;;;;;;;;31.50;29.25;;;;;18.69;56.95;101991.81;2081690;28;48044;-59
2021/09/21 02:15:21;;;;;;;;;34.40;29.60;;;;;18.71;57.11;101992.66;2078641;28;47504;-59
2021/09/21 02:16:21;;;;;;;;;28.40;27.40;;;;;18.70;56.81;101992.69;2075087;28;46676;-59
2021/09/21 02:17:22;;;;;;;;;34.00;29.75;;;;;18.71;56.77;101997.16;2077116;28;47556;-59
2021/09/21 02:18:22;;;;;;;;;31.25;28.50;;;;;18.70;56.73;101998.97;2082557;28;47020;-59
2021/09/21 02:19:24;;;;;;;;;31.25;28.75;;;;;18.72;56.81;102006.97;2081543;28;47429;-59
2021/09/21 02:20:25;;;;;;;;;31.60;29.40;;;;;18.73;57.15;102004.22;2090680;28;45354;-59
2021/09/21 02:21:27;;;;;;;;;37.00;31.40;;;;;18.74;56.85;102005.97;2090101;28;47253;-59
2021/09/21 02:22:27;;;;;;;;;39.40;30.80;;;;;18.76;56.72;102000.53;2083143;28;46377;-59
2021/09/21 02:23:28;;;;;;;;;37.00;33.00;;;;;18.76;56.71;102006.78;2074238;28;48088;-59
2021/09/21 02:24:29;;;;;;;;;31.25;29.50;;;;;18.77;56.79;101999.59;2082695;28;48540;-59
2021/09/21 02:25:29;;;;;;;;;31.75;30.25;;;;;18.78;56.70;102004.03;2082970;28;46684;-59
2021/09/21 02:26:30;;;;;;;;;35.00;31.75;;;;;18.79;56.59;101998.59;2083247;28;47419;-59
2021/09/21 02:27:30;;;;;;;;;34.25;30.75;;;;;18.79;56.74;102004.00;2087309;28;46773;-59
2021/09/21 02:28:30;;;;;;;;;34.75;31.00;;;;;18.79;56.50;102001.31;2080017;28;47141;-59
2021/09/21 02:29:31;;;;;;;;;37.75;31.25;;;;;18.80;56.73;102002.19;2079612;28;47320;-59
2021/09/21 02:30:32;;;;;;;;;32.00;31.25;;;;;18.81;56.55;102003.97;2080907;28;47184;-59
2021/09/21 02:31:33;;;;;;;;;27.80;25.20;;;;;18.80;56.76;102005.78;2082935;28;47795;-59
2021/09/21 02:32:33;;;;;;;;;31.00;30.00;;;;;18.80;56.55;102002.19;2080487;28;48229;-60
2021/09/21 02:33:34;;;;;;;;;28.75;28.00;;;;;18.82;56.69;102003.03;2075200;28;47187;-59
2021/09/21 02:34:35;;;;;;;;;32.00;29.80;;;;;18.82;56.49;102003.03;2079054;28;47099;-59
2021/09/21 02:35:35;;;;;;;;;36.75;33.25;;;;;18.81;56.46;102009.34;2076851;28;47013;-59
2021/09/21 02:36:40;;;;;;;;;31.50;29.50;;;;;18.80;56.65;102011.16;2082419;28;47962;-59
2021/09/21 02:37:41;;;;;;;;;30.80;29.60;;;;;18.81;56.62;102012.91;2082916;28;47261;-59
2021/09/21 02:38:42;;;;;;;;;34.20;29.00;;;;;18.81;56.55;102014.72;2083105;28;47096;-59
2021/09/21 02:39:43;;;;;;;;;36.50;32.00;;;;;18.80;56.67;102016.53;2082189;28;47800;-59
2021/09/21 02:40:44;;;;;;;;;34.20;31.20;;;;;18.80;56.73;102021.91;2081835;28;48218;-59
2021/09/21 02:41:44;;;;;;;;;34.50;32.00;;;;;18.81;56.59;102017.41;2080077;28;48686;-59
2021/09/21 02:42:45;;;;;;;;;29.50;28.50;;;;;18.81;56.42;102018.28;2082376;28;47425;-59
2021/09/21 02:43:45;;;;;;;;;35.00;32.00;;;;;18.80;56.57;102011.16;2082316;28;47109;-59
2021/09/21 02:44:46;;;;;;;;;29.75;29.00;;;;;18.81;56.80;102014.72;2083226;28;48018;-59
2021/09/21 02:45:47;;;;;;;;;35.75;32.75;;;;;18.80;56.24;102008.47;2080531;28;48182;-59
2021/09/21 02:46:47;;;;;;;;;27.75;25.75;;;;;18.80;56.64;102010.25;2083151;28;47252;-59
2021/09/21 02:47:48;;;;;;;;;33.25;31.00;;;;;18.79;56.58;102011.19;2079287;28;47011;-59
2021/09/21 02:48:48;;;;;;;;;34.50;32.50;;;;;18.78;56.42;102006.75;2079134;28;47395;-58
2021/09/21 02:49:48;;;;;;;;;35.00;31.50;;;;;18.76;56.31;102009.50;2082353;28;47291;-59
2021/09/21 02:50:49;;;;;;;;;33.75;30.50;;;;;18.75;56.44;102006.84;2082345;28;48378;-59
2021/09/21 02:51:49;;;;;;;;;36.75;32.25;;;;;18.73;56.60;102001.53;2081989;28;46066;-59
2021/09/21 02:52:50;;;;;;;;;35.00;31.50;;;;;18.73;56.44;102006.03;2082990;28;47100;-59
2021/09/21 02:53:50;;;;;;;;;37.50;32.00;;;;;18.71;56.18;102000.72;2079963;28;47621;-59
2021/09/21 02:54:51;;;;;;;;;31.50;29.75;;;;;18.71;56.19;102002.53;2082213;28;47664;-59
2021/09/21 02:55:51;;;;;;;;;34.25;31.75;;;;;18.68;56.22;102002.63;2078795;28;47245;-59
2021/09/21 02:56:52;;;;;;;;;31.25;29.75;;;;;18.66;56.45;101997.28;2078974;28;48216;-59
2021/09/21 02:57:52;;;;;;;;;34.00;31.75;;;;;18.64;56.63;102004.53;2082527;28;45257;-59
2021/09/21 02:58:53;;;;;;;;;34.50;31.25;;;;;18.64;56.30;101999.16;2081940;28;45388;-59
2021/09/21 02:59:53;;;;;;;;;33.75;30.50;;;;;18.63;56.46;102001.88;2082274;28;47436;-59
2021/09/21 03:00:56;;;;;;;;;37.50;33.75;;;;;18.60;56.40;102008.25;2081901;28;47462;-59
2021/09/21 03:01:56;;;;;;;;;45.20;37.00;;;;;18.59;56.48;102003.78;2079962;28;45465;-59
2021/09/21 03:03:01;;;;;;;;;33.00;31.00;;;;;18.58;56.40;102003.84;2078829;28;47345;-59
2021/09/21 03:04:06;;;;;;;;;36.00;34.20;;;;;18.55;56.38;102004.84;2082411;28;47312;-59
2021/09/21 03:05:11;;;;;;;;;35.60;31.20;;;;;18.53;56.88;102012.94;2082058;28;45395;-59
2021/09/21 03:06:21;;;;;;;;;32.60;28.60;;;;;18.52;56.97;102003.13;2082911;28;48262;-59
2021/09/21 03:07:46;;;;;;;;;34.00;28.60;;;;;18.51;56.87;102008.53;2081828;28;47461;-59
2021/09/21 03:08:42;;;;;;;;;36.40;31.60;;;;;18.51;56.54;102014.81;2082751;28;47256;-59
2021/09/21 03:11:48;;;;;;;;;35.00;31.25;;;;;18.47;56.83;102017.66;2082498;28;47491;-59
2021/09/21 03:17:49;;;;;;;;;42.00;36.60;;;;;18.44;56.73;102029.41;2081818;28;47407;-59
2021/09/21 03:18:50;;;;;;;;;43.50;33.75;;;;;18.44;56.84;102026.72;2075301;28;47943;-59
2021/09/21 03:19:50;;;;;;;;;37.50;33.75;;;;;18.44;56.89;102031.22;2081880;28;47267;-59
2021/09/21 03:20:51;;;;;;;;;31.25;30.25;;;;;18.45;56.90;102030.28;2082501;28;47427;-59
2021/09/21 03:21:54;;;;;;;;;41.25;32.50;;;;;18.44;56.99;102026.72;2081915;28;48141;-59
2021/09/21 03:22:55;;;;;;;;;27.40;27.40;;;;;18.45;56.84;102022.22;2086711;28;48128;-59
2021/09/21 03:23:55;;;;;;;;;38.75;34.75;;;;;18.43;56.75;102021.38;2081618;28;47428;-57
2021/09/21 03:24:56;;;;;;;;;40.25;34.25;;;;;18.40;56.45;102027.72;2074993;28;47664;-59
2021/09/21 03:25:57;;;;;;;;;37.75;35.00;;;;;18.36;56.46;102025.19;2079066;28;47511;-59
2021/09/21 03:26:57;;;;;;;;;36.25;33.75;;;;;18.31;56.46;102032.53;2083670;28;48684;-59
2021/09/21 03:27:59;;;;;;;;;40.25;34.25;;;;;18.27;56.68;102028.19;2082190;28;47197;-59
2021/09/21 03:28:59;;;;;;;;;43.20;36.00;;;;;18.23;56.69;102027.41;2082688;28;47409;-59
2021/09/21 03:30:00;;;;;;;;;37.50;33.75;;;;;18.23;57.00;102032.78;2082106;28;48350;-59
2021/09/21 03:31:01;;;;;;;;;40.00;34.50;;;;;18.23;56.87;102030.09;2081051;28;46384;-59
2021/09/21 03:32:01;;;;;;;;;42.00;35.00;;;;;18.23;56.99;102036.34;2081236;28;46982;-59
2021/09/21 03:33:03;;;;;;;;;41.25;35.25;;;;;18.22;56.98;102034.59;2075300;28;48379;-59
2021/09/21 03:34:03;;;;;;;;;41.40;35.20;;;;;18.23;56.96;102030.09;2080111;28;47317;-59
2021/09/21 03:35:05;;;;;;;;;41.75;33.75;;;;;18.24;57.11;102035.41;2081444;28;47219;-58
2021/09/21 03:36:06;;;;;;;;;32.00;30.60;;;;;18.25;57.13;102036.28;2082193;28;47355;-59
2021/09/21 03:37:08;;;;;;;;;41.25;35.50;;;;;18.28;57.02;102036.19;2079451;28;46080;-59
2021/09/21 03:38:08;;;;;;;;;44.20;36.60;;;;;18.29;57.35;102034.38;2079020;28;48268;-59
2021/09/21 03:39:09;;;;;;;;;41.25;34.75;;;;;18.29;56.86;102026.31;2082644;28;47160;-59
2021/09/21 03:40:10;;;;;;;;;40.50;34.00;;;;;18.30;56.96;102038.84;2082738;28;47291;-59
2021/09/21 03:41:10;;;;;;;;;41.00;35.80;;;;;18.30;56.98;102036.16;2075375;28;48597;-59
2021/09/21 03:42:12;;;;;;;;;41.50;37.25;;;;;18.30;56.84;102036.16;2067879;28;45349;-59
2021/09/21 03:43:13;;;;;;;;;40.60;34.60;;;;;18.28;56.80;102027.25;2080848;28;47365;-59
2021/09/21 03:44:13;;;;;;;;;44.00;37.00;;;;;18.25;56.70;102036.28;2081709;28;47989;-59
2021/09/21 03:45:14;;;;;;;;;39.75;35.50;;;;;18.23;56.84;102024.72;2078614;28;47237;-59
2021/09/21 03:46:14;;;;;;;;;42.50;34.00;;;;;18.18;57.09;102027.56;2080823;28;47073;-59
2021/09/21 03:47:15;;;;;;;;;38.50;34.25;;;;;18.16;56.96;102024.03;2082038;28;48066;-59
2021/09/21 03:48:16;;;;;;;;;43.25;36.75;;;;;18.16;56.83;102028.53;2081746;28;45139;-59
2021/09/21 03:49:16;;;;;;;;;41.00;35.25;;;;;18.15;56.75;102032.13;2075808;28;48350;-59
2021/09/21 03:50:17;;;;;;;;;39.00;35.00;;;;;18.14;57.07;102033.94;2081091;28;48386;-59
2021/09/21 03:51:17;;;;;;;;;45.00;37.50;;;;;18.14;57.02;102033.94;2076450;28;47066;-59
2021/09/21 03:52:18;;;;;;;;;48.50;37.25;;;;;18.15;56.88;102038.38;2082225;28;47134;-59
2021/09/21 03:53:18;;;;;;;;;39.00;35.25;;;;;18.15;57.06;102026.75;2080057;28;47377;-60
2021/09/21 03:54:19;;;;;;;;;41.50;35.25;;;;;18.15;56.97;102030.31;2076530;28;47844;-59
2021/09/21 03:55:20;;;;;;;;;42.75;35.25;;;;;18.15;56.88;102032.13;2080044;28;47367;-59
2021/09/21 03:56:21;;;;;;;;;41.80;36.40;;;;;18.15;57.03;102034.81;2081753;28;47374;-59
2021/09/21 03:57:21;;;;;;;;;39.00;33.75;;;;;18.15;57.03;102034.81;2077008;28;47113;-60
2021/09/21 03:58:21;;;;;;;;;41.25;36.25;;;;;18.14;57.18;102033.94;2079653;28;48349;-59
2021/09/21 03:59:24;;;;;;;;;41.00;35.50;;;;;18.15;57.02;102040.19;2082273;28;48257;-59
2021/09/21 04:00:25;;;;;;;;;41.80;35.00;;;;;18.14;57.07;102039.31;2082447;28;47372;-59
2021/09/21 04:01:26;;;;;;;;;39.75;34.50;;;;;18.14;56.85;102038.44;2078971;28;47151;-59
2021/09/21 04:02:26;;;;;;;;;45.25;39.00;;;;;18.15;57.03;102042.88;2079877;28;46542;-59
2021/09/21 04:03:27;;;;;;;;;40.50;35.50;;;;;18.12;56.93;102035.81;2081577;28;48179;-59
2021/09/21 04:04:27;;;;;;;;;39.50;34.00;;;;;18.10;56.70;102043.03;2080241;28;48411;-59
2021/09/21 04:05:28;;;;;;;;;46.00;35.50;;;;;18.08;56.89;102038.66;2080427;28;47047;-59
2021/09/21 04:06:28;;;;;;;;;48.00;37.00;;;;;18.04;56.63;102045.03;2081851;28;47580;-59
2021/09/21 04:07:29;;;;;;;;;45.50;37.50;;;;;18.02;57.07;102042.41;2079145;28;48218;-59
2021/09/21 04:08:29;;;;;;;;;44.00;36.50;;;;;18.00;57.03;102041.56;2081546;28;48346;-59
2021/09/21 04:09:30;;;;;;;;;45.00;36.00;;;;;17.99;57.31;102042.50;2082104;28;47791;-59
2021/09/21 04:10:30;;;;;;;;;40.25;34.25;;;;;18.00;57.19;102043.38;2082561;28;47326;-59
2021/09/21 04:11:31;;;;;;;;;42.25;36.50;;;;;18.00;57.41;102043.38;2081296;28;47378;-59
2021/09/21 04:12:32;;;;;;;;;42.50;36.25;;;;;17.99;57.21;102052.38;2081603;28;47571;-59
2021/09/21 04:13:32;;;;;;;;;43.50;35.25;;;;;17.99;56.71;102055.06;2080541;28;47319;-59
2021/09/21 04:14:34;;;;;;;;;42.00;36.50;;;;;17.97;57.17;102051.53;2078549;28;48698;-59
2021/09/21 04:15:34;;;;;;;;;42.80;36.20;;;;;17.96;57.10;102058.72;2078886;28;47795;-59
2021/09/21 04:16:35;;;;;;;;;41.50;36.25;;;;;17.95;57.42;102056.97;2080688;28;47233;-59
2021/09/21 04:17:35;;;;;;;;;44.75;38.00;;;;;17.94;57.21;102058.78;2082179;28;47317;-59
2021/09/21 04:18:36;;;;;;;;;42.00;35.75;;;;;17.93;57.26;102062.38;2078497;28;48285;-59
2021/09/21 04:19:36;;;;;;;;;37.50;33.75;;;;;17.93;57.13;102054.31;2079792;28;46171;-59
2021/09/21 04:20:37;;;;;;;;;46.00;38.50;;;;;17.93;57.21;102056.13;2080424;28;47364;-59
2021/09/21 04:21:37;;;;;;;;;42.25;35.50;;;;;17.93;57.11;102061.50;2081284;28;45233;-59
2021/09/21 04:22:42;;;;;;;;;45.50;36.75;;;;;17.93;57.24;102062.38;2083745;28;47848;-59
2021/09/21 04:23:42;;;;;;;;;41.20;36.60;;;;;17.92;56.93;102063.31;2073986;28;46988;-59
2021/09/21 04:24:43;;;;;;;;;39.00;34.00;;;;;17.92;57.36;102059.75;2080822;28;47071;-59
2021/09/21 04:25:43;;;;;;;;;42.00;35.75;;;;;17.91;57.01;102064.25;2081423;28;48229;-60
2021/09/21 04:26:44;;;;;;;;;46.75;37.25;;;;;17.92;57.25;102066.00;2082413;28;48433;-59
2021/09/21 04:27:46;;;;;;;;;42.50;36.25;;;;;17.91;57.28;102068.72;2087267;28;48421;-59
2021/09/21 04:28:47;;;;;;;;;47.20;38.80;;;;;17.91;57.01;102068.72;2073635;28;45426;-59
2021/09/21 04:29:50;;;;;;;;;40.75;34.75;;;;;17.91;57.15;102079.44;2080284;28;47306;-60
2021/09/21 04:30:52;;;;;;;;;48.80;40.00;;;;;17.90;57.17;102075.88;2079641;28;47603;-59
2021/09/21 04:31:55;;;;;;;;;42.00;37.00;;;;;17.91;57.12;102077.69;2082214;28;48423;-59
2021/09/21 04:32:57;;;;;;;;;46.80;39.40;;;;;17.90;57.01;102073.19;2083563;28;46372;-59
2021/09/21 04:33:57;;;;;;;;;43.80;36.60;;;;;17.89;57.19;102074.13;2082487;28;48322;-60
2021/09/21 04:34:58;;;;;;;;;45.00;39.00;;;;;17.87;57.15;102073.31;2083678;28;47239;-59
2021/09/21 04:35:58;;;;;;;;;44.50;36.00;;;;;17.85;57.34;102075.16;2083062;28;47313;-59
2021/09/21 04:37:00;;;;;;;;;49.50;39.50;;;;;17.84;57.09;102077.91;2079494;28;47176;-61
2021/09/21 04:38:00;;;;;;;;;43.80;37.40;;;;;17.83;57.06;102079.69;2078869;28;46343;-59
2021/09/21 04:39:01;;;;;;;;;45.50;39.25;;;;;17.83;57.32;102076.13;2083149;28;48296;-59
2021/09/21 04:40:02;;;;;;;;;43.00;36.75;;;;;17.82;56.94;102077.06;2080218;28;48206;-59
2021/09/21 04:41:04;;;;;;;;;41.20;35.80;;;;;17.80;57.15;102078.94;2075824;28;45693;-59
2021/09/21 04:42:04;;;;;;;;;43.40;38.20;;;;;17.78;57.45;102086.13;2078120;28;48777;-59
2021/09/21 04:43:06;;;;;;;;;47.50;38.00;;;;;17.77;57.33;102084.34;2078372;28;47370;-59
2021/09/21 04:44:07;;;;;;;;;50.40;40.60;;;;;17.76;57.23;102085.28;2074619;28;47091;-59
2021/09/21 04:45:08;;;;;;;;;41.00;36.00;;;;;17.76;57.69;102086.16;2074130;28;47112;-59
2021/09/21 04:46:09;;;;;;;;;46.00;36.75;;;;;17.76;57.47;102079.91;2082403;28;48373;-59
2021/09/21 04:47:10;;;;;;;;;46.60;39.00;;;;;17.76;57.21;102075.44;2082120;28;48353;-59
2021/09/21 04:48:10;;;;;;;;;42.50;37.00;;;;;17.76;57.26;102079.91;2082925;28;47248;-60
2021/09/21 04:49:13;;;;;;;;;50.25;40.50;;;;;17.77;57.53;102076.31;2082835;28;46357;-59